Time;durP1;ratioP1;P1;durP2;ratioP2;P2;SDS_P1;SDS_P2;PMS_P1;PMS_P2;Temp;Humidity;BMP_temperature;BMP_pressure;BME280_temperature;BME280_humidity;BME280_pressure;Samples;Min_cycle;Max_cycle;Signal;HPM_P1;HPM_P2
2021/11/24 00:02:31;;;;;;;9.73;6.72;;;;;;;9.19;100.00;102106.25;4918405;29;20036;-69
2021/11/24 00:05:18;;;;;;;8.35;6.90;;;;;;;8.54;100.00;102106.34;4919665;29;20024;-67
2021/11/24 00:08:04;;;;;;;10.40;8.15;;;;;;;8.57;100.00;102112.47;4917850;29;20032;-68
2021/11/24 00:10:50;;;;;;;9.68;7.80;;;;;;;8.67;100.00;102106.53;4918595;29;20028;-68
2021/11/24 00:13:36;;;;;;;9.63;7.40;;;;;;;8.82;100.00;102105.81;4917682;29;20031;-68
2021/11/24 00:16:23;;;;;;;13.70;10.77;;;;;;;8.81;100.00;102110.16;4918525;29;20032;-68
2021/11/24 00:19:08;;;;;;;10.40;7.47;;;;;;;8.11;100.00;102114.41;4917618;29;20028;-68
2021/11/24 00:21:54;;;;;;;11.20;8.80;;;;;;;8.70;100.00;102116.13;4918111;29;20114;-68
2021/11/24 00:24:40;;;;;;;9.27;7.18;;;;;;;8.77;100.00;102110.97;4905675;29;20028;-68
2021/11/24 00:27:26;;;;;;;10.00;7.72;;;;;;;8.74;100.00;102105.75;4904197;29;20043;-66
2021/11/24 00:30:12;;;;;;;9.98;7.97;;;;;;;8.89;100.00;102094.59;4919534;29;20439;-69
2021/11/24 00:32:57;;;;;;;10.55;8.20;;;;;;;8.84;100.00;102091.91;4918922;29;20036;-68
2021/11/24 00:35:43;;;;;;;11.73;8.85;;;;;;;8.86;100.00;102084.09;4917704;29;20047;-68
2021/11/24 00:38:29;;;;;;;10.48;7.82;;;;;;;9.10;100.00;102100.94;4917208;29;20032;-68
2021/11/24 00:41:15;;;;;;;12.60;7.97;;;;;;;8.93;100.00;102099.00;4904392;29;20419;-68
2021/11/24 00:44:00;;;;;;;10.80;8.15;;;;;;;9.04;100.00;102102.56;4917947;29;20104;-68
2021/11/24 00:46:46;;;;;;;9.93;8.00;;;;;;;8.75;100.00;102107.50;4917868;29;20032;-68
2021/11/24 00:49:32;;;;;;;12.13;7.70;;;;;;;9.00;100.00;102111.25;4918263;29;20466;-69
2021/11/24 00:52:18;;;;;;;10.38;7.72;;;;;;;9.32;100.00;102107.22;4917864;29;20375;-68
2021/11/24 00:55:04;;;;;;;11.60;7.25;;;;;;;9.21;100.00;102111.50;4917468;29;20052;-68
2021/11/24 00:57:50;;;;;;;10.00;7.78;;;;;;;8.98;100.00;102119.09;4904307;29;20091;-69
2021/11/24 01:00:36;;;;;;;11.10;7.70;;;;;;;8.64;100.00;102122.16;4919250;29;20047;-69
2021/11/24 01:03:21;;;;;;;9.30;7.63;;;;;;;8.98;100.00;102113.88;4917447;29;20443;-68
2021/11/24 01:06:07;;;;;;;9.75;7.80;;;;;;;9.14;100.00;102115.78;4918041;29;20068;-68
2021/11/24 01:08:53;;;;;;;10.38;7.28;;;;;;;9.41;100.00;102117.81;4916995;29;20032;-69
2021/11/24 01:11:40;;;;;;;9.60;7.50;;;;;;;9.13;100.00;102123.63;4917412;29;20024;-68
2021/11/24 01:14:26;;;;;;;9.30;6.82;;;;;;;9.25;100.00;102118.50;4917530;29;20032;-68
2021/11/24 01:17:12;;;;;;;10.68;7.57;;;;;;;9.03;100.00;102119.13;4916958;29;20055;-68
2021/11/24 01:19:58;;;;;;;9.93;7.35;;;;;;;9.15;100.00;102124.50;4902619;29;20036;-68
2021/11/24 01:22:45;;;;;;;10.85;7.90;;;;;;;9.07;100.00;102121.81;4917768;29;20103;-68
2021/11/24 01:25:31;;;;;;;10.50;7.65;;;;;;;8.84;100.00;102127.66;4918205;29;20075;-67
2021/11/24 01:28:17;;;;;;;9.88;7.60;;;;;;;9.03;100.00;102117.41;4917578;29;20028;-69
2021/11/24 01:31:02;;;;;;;10.30;7.65;;;;;;;9.27;100.00;102122.00;4917824;29;20054;-68
2021/11/24 01:33:48;;;;;;;10.98;7.60;;;;;;;9.35;100.00;102120.34;4904042;29;20467;-68
2021/11/24 01:36:34;;;;;;;11.02;8.45;;;;;;;9.26;100.00;102120.25;4916749;29;20096;-68
2021/11/24 01:39:20;;;;;;;10.60;7.72;;;;;;;8.90;100.00;102117.25;4917012;29;20024;-68
2021/11/24 01:42:05;;;;;;;12.32;8.38;;;;;;;9.18;100.00;102117.56;4918538;29;20028;-67
2021/11/24 01:44:51;;;;;;;11.48;8.02;;;;;;;9.17;100.00;102117.56;4917096;29;20024;-69
2021/11/24 01:47:37;;;;;;;12.35;8.73;;;;;;;8.87;100.00;102119.81;4917392;29;20040;-68
2021/11/24 01:50:23;;;;;;;11.82;8.45;;;;;;;9.01;100.00;102116.50;4904209;29;20044;-69
2021/11/24 01:53:10;;;;;;;11.30;8.45;;;;;;;8.64;100.00;102116.94;4904154;29;20024;-68
2021/11/24 01:55:58;;;;;;;10.63;8.20;;;;;;;8.72;100.00;102117.03;4903194;29;20467;-69
2021/11/24 01:58:44;;;;;;;11.68;8.35;;;;;;;8.73;100.00;102119.66;4903372;29;20079;-69
2021/11/24 02:01:30;;;;;;;11.60;7.95;;;;;;;8.31;100.00;102118.22;4903284;29;20450;-68
2021/11/24 02:04:17;;;;;;;12.07;8.60;;;;;;;8.36;100.00;102121.78;4917335;29;20036;-68
2021/11/24 02:07:02;;;;;;;12.50;8.70;;;;;;;8.75;100.00;102127.50;4917080;29;20050;-68
2021/11/24 02:09:48;;;;;;;12.82;9.48;;;;;;;8.29;100.00;102123.44;4917132;29;20064;-68
2021/11/24 02:12:35;;;;;;;11.02;8.15;;;;;;;8.21;100.00;102125.06;4917284;29;20435;-68
2021/11/24 02:15:21;;;;;;;10.52;8.00;;;;;;;8.20;100.00;102135.44;4917046;29;20410;-68
2021/11/24 02:18:07;;;;;;;11.35;8.80;;;;;;;8.53;100.00;102126.34;4903641;29;20071;-68
2021/11/24 02:20:53;;;;;;;11.23;8.82;;;;;;;8.34;100.00;102121.75;4916820;29;20111;-68
2021/11/24 02:23:39;;;;;;;9.45;8.13;;;;;;;7.94;100.00;102131.53;4919862;29;20020;-68
2021/11/24 02:26:25;;;;;;;12.75;8.70;;;;;;;8.01;100.00;102134.28;4920034;29;20024;-68
2021/11/24 02:29:11;;;;;;;11.60;8.82;;;;;;;8.20;100.00;102132.84;4920389;29;20032;-67
2021/11/24 02:31:59;;;;;;;14.95;9.70;;;;;;;8.23;100.00;102125.06;4919710;29;20032;-68
2021/11/24 02:34:45;;;;;;;14.02;9.48;;;;;;;8.20;100.00;102128.47;4919993;29;20138;-69
2021/11/24 02:37:31;;;;;;;11.70;8.73;;;;;;;8.54;100.00;102129.84;4919545;29;20115;-68
2021/11/24 02:40:17;;;;;;;12.77;9.50;;;;;;;8.30;100.00;102134.75;4919465;29;20028;-68
2021/11/24 02:43:04;;;;;;;13.88;9.45;;;;;;;8.02;100.00;102140.38;4920927;29;20024;-69
2021/11/24 02:45:50;;;;;;;13.38;10.02;;;;;;;7.83;100.00;102149.66;4919225;29;20046;-68
2021/11/24 02:48:35;;;;;;;12.43;9.20;;;;;;;8.20;100.00;102143.28;4905665;29;20341;-68
2021/11/24 02:51:21;;;;;;;15.05;10.20;;;;;;;8.10;100.00;102143.97;4919790;29;20120;-68
2021/11/24 02:54:07;;;;;;;13.93;10.13;;;;;;;7.93;100.00;102146.34;4919434;29;20020;-68
2021/11/24 02:56:53;;;;;;;14.15;10.65;;;;;;;7.99;100.00;102149.03;4920165;29;20463;-69
2021/11/24 02:59:39;;;;;;;13.90;9.95;;;;;;;7.85;100.00;102152.28;4919346;29;20103;-68
2021/11/24 03:02:26;;;;;;;12.80;9.65;;;;;;;8.07;100.00;102146.53;4918752;29;20028;-68
2021/11/24 03:05:14;;;;;;;13.15;9.93;;;;;;;7.96;100.00;102155.94;4920070;29;20039;-68
2021/11/24 03:08:00;;;;;;;13.00;10.35;;;;;;;7.97;100.00;102149.88;4919068;29;20035;-68
2021/11/24 03:10:46;;;;;;;15.70;10.82;;;;;;;7.79;100.00;102160.00;4919146;29;20032;-68
2021/11/24 03:13:32;;;;;;;14.80;11.35;;;;;;;8.03;100.00;102163.88;4919253;29;20032;-68
2021/11/24 03:16:18;;;;;;;16.02;11.27;;;;;;;7.82;100.00;102165.25;4905780;29;20035;-68
2021/11/24 03:19:04;;;;;;;15.80;10.50;;;;;;;7.97;100.00;102160.31;4918830;29;20066;-68
2021/11/24 03:21:50;;;;;;;16.88;11.70;;;;;;;7.85;100.00;102167.94;4919747;29;20455;-68
2021/11/24 03:24:35;;;;;;;17.30;11.45;;;;;;;7.61;100.00;102164.91;4919171;29;20023;-69
2021/11/24 03:27:27;;;;;;;18.40;11.52;;;;;;;7.44;100.00;102171.56;4918543;29;20039;-68
2021/11/24 03:30:19;;;;;;;19.67;11.48;;;;;;;7.62;100.00;102174.47;4919041;29;20404;-68
2021/11/24 03:33:06;;;;;;;23.73;12.13;;;;;;;7.58;100.00;102175.28;4917333;29;20123;-68
2021/11/24 03:35:52;;;;;;;25.27;12.90;;;;;;;7.46;100.00;102180.28;4905799;29;20051;-68
2021/11/24 03:38:38;;;;;;;22.15;11.82;;;;;;;7.49;100.00;102183.84;4918247;29;20447;-68
2021/11/24 03:41:25;;;;;;;25.80;12.85;;;;;;;7.53;100.00;102184.75;4919315;29;20076;-68
2021/11/24 03:44:10;;;;;;;23.85;13.30;;;;;;;7.16;100.00;102185.78;4918787;29;20451;-68
2021/11/24 03:46:56;;;;;;;21.85;12.18;;;;;;;7.19;100.00;102185.00;4918513;29;20036;-68
2021/11/24 03:49:42;;;;;;;25.50;13.63;;;;;;;7.17;100.00;102194.50;4920099;29;20028;-68
2021/11/24 03:52:28;;;;;;;23.08;13.90;;;;;;;7.40;100.00;102182.78;4919809;29;20032;-68
2021/11/24 03:55:15;;;;;;;21.83;14.10;;;;;;;7.53;100.00;102189.97;4917248;29;20059;-67
2021/11/24 03:58:02;;;;;;;19.45;13.00;;;;;;;6.75;100.00;102193.63;4918458;29;20020;-69
2021/11/24 04:00:48;;;;;;;21.70;13.80;;;;;;;6.64;100.00;102197.72;4918313;29;20063;-67
2021/11/24 04:03:34;;;;;;;20.42;14.13;;;;;;;6.92;100.00;102195.75;4917877;29;20107;-67
2021/11/24 04:06:19;;;;;;;19.45;13.93;;;;;;;6.96;100.00;102192.34;4918105;29;20028;-68
2021/11/24 04:09:06;;;;;;;22.08;14.45;;;;;;;6.87;100.00;102196.50;4919049;29;20063;-67
2021/11/24 04:11:52;;;;;;;24.00;13.73;;;;;;;7.13;100.00;102198.78;4918263;29;20024;-68
2021/11/24 04:14:38;;;;;;;17.90;12.23;;;;;;;7.38;100.00;102206.22;4919263;29;20053;-68
2021/11/24 04:17:24;;;;;;;18.67;13.00;;;;;;;7.33;100.00;102207.88;4906002;29;20308;-68
2021/11/24 04:20:13;;;;;;;20.52;12.40;;;;;;;7.13;100.00;102203.09;4917749;29;20024;-68
2021/11/24 04:22:58;;;;;;;22.70;13.57;;;;;;;7.21;100.00;102202.41;4917971;29;20024;-67
2021/11/24 04:25:44;;;;;;;19.88;13.98;;;;;;;6.79;100.00;102204.13;4917541;29;20028;-68
2021/11/24 04:28:30;;;;;;;22.55;15.10;;;;;;;6.77;100.00;102212.75;4919485;29;20183;-67
2021/11/24 04:31:16;;;;;;;25.40;16.17;;;;;;;6.78;100.00;102207.56;4917642;29;20024;-68
2021/11/24 04:34:01;;;;;;;23.30;14.90;;;;;;;6.78;100.00;102214.50;4917550;29;20042;-68
2021/11/24 04:36:47;;;;;;;21.50;14.13;;;;;;;6.88;100.00;102221.69;4905471;29;20486;-68
2021/11/24 04:39:33;;;;;;;20.25;14.27;;;;;;;6.75;100.00;102227.47;4918334;29;20043;-68
2021/11/24 04:42:19;;;;;;;20.98;14.52;;;;;;;6.83;100.00;102231.13;4905792;29;20391;-68
2021/11/24 04:45:05;;;;;;;22.08;14.10;;;;;;;7.32;100.00;102236.50;4917890;29;20028;-67
2021/11/24 04:47:50;;;;;;;26.30;14.93;;;;;;;7.08;100.00;102225.59;4917686;29;20039;-68
2021/11/24 04:50:36;;;;;;;24.25;13.85;;;;;;;7.10;100.00;102219.56;4917132;29;20032;-68
2021/11/24 04:53:22;;;;;;;29.42;16.10;;;;;;;6.98;100.00;102224.50;4918733;29;20111;-68
2021/11/24 04:56:08;;;;;;;23.45;15.30;;;;;;;7.20;100.00;102225.84;4916943;29;20499;-68
2021/11/24 04:58:56;;;;;;;28.30;16.42;;;;;;;7.40;100.00;102229.72;4917789;29;20464;-68
2021/11/24 05:01:42;;;;;;;27.70;17.10;;;;;;;7.41;100.00;102242.78;4917506;29;20028;-67
2021/11/24 05:04:28;;;;;;;31.77;17.17;;;;;;;7.21;100.00;102235.41;4917677;29;20040;-68
2021/11/24 05:07:14;;;;;;;25.33;16.00;;;;;;;7.01;100.00;102237.63;4917284;29;20032;-68
2021/11/24 05:10:00;;;;;;;26.95;15.63;;;;;;;7.11;100.00;102238.69;4917270;29;20122;-68
2021/11/24 05:12:46;;;;;;;23.13;14.45;;;;;;;7.13;100.00;102245.69;4903962;29;20099;-68
2021/11/24 05:15:35;;;;;;;27.50;15.15;;;;;;;7.06;100.00;102251.59;4917754;29;20024;-67
2021/11/24 05:18:28;;;;;;;23.33;14.82;;;;;;;7.14;100.00;102246.53;4916716;29;20042;-68
2021/11/24 05:24:18;;;;;;;21.90;13.75;;;;;;;7.45;100.00;102257.66;4916238;29;20384;-68
2021/11/24 05:27:05;;;;;;;18.77;12.98;;;;;;;7.40;100.00;102261.84;4917408;29;20099;-69
2021/11/24 05:29:50;;;;;;;23.10;13.73;;;;;;;7.56;100.00;102268.28;4916414;29;20044;-69
2021/11/24 05:32:37;;;;;;;24.50;16.02;;;;;;;7.70;100.00;102272.91;4916578;29;20122;-68
2021/11/24 05:35:25;;;;;;;25.80;15.75;;;;;;;7.43;100.00;102271.50;4916976;29;20039;-68
2021/11/24 05:38:11;;;;;;;21.63;14.57;;;;;;;7.08;100.00;102282.91;4917190;29;20036;-68
2021/11/24 05:40:56;;;;;;;22.23;14.82;;;;;;;7.69;100.00;102288.53;4903732;29;20078;-68
2021/11/24 05:43:42;;;;;;;24.08;15.25;;;;;;;7.72;100.00;102292.06;4916571;29;20028;-69
2021/11/24 05:46:41;;;;;;;27.92;15.55;;;;;;;7.40;100.00;102287.94;4903284;29;20032;-68
2021/11/24 05:49:29;;;;;;;27.27;15.90;;;;;;;7.60;100.00;102294.44;4918633;29;20107;-68
2021/11/24 05:52:14;;;;;;;25.23;16.10;;;;;;;7.96;100.00;102297.72;4917374;29;20031;-68
2021/11/24 05:55:00;;;;;;;23.38;16.35;;;;;;;7.47;100.00;102295.03;4916282;29;20424;-67
2021/11/24 05:57:46;;;;;;;26.75;17.23;;;;;;;7.41;100.00;102301.88;4919949;29;20050;-68
2021/11/24 06:00:33;;;;;;;28.20;16.73;;;;;;;7.51;100.00;102309.03;4921481;29;20028;-68
2021/11/24 06:03:19;;;;;;;22.27;15.07;;;;;;;7.61;100.00;102313.56;4919974;29;20427;-69
2021/11/24 06:06:05;;;;;;;27.33;15.90;;;;;;;7.63;100.00;102317.13;4921212;29;20032;-69
2021/11/24 06:08:50;;;;;;;26.50;16.05;;;;;;;8.03;100.00;102319.59;4919911;29;20028;-69
2021/11/24 06:11:37;;;;;;;26.58;15.90;;;;;;;8.11;100.00;102326.72;4921511;29;20044;-67
2021/11/24 06:14:23;;;;;;;31.15;17.38;;;;;;;8.18;100.00;102338.16;4919825;29;20422;-68
2021/11/24 06:17:09;;;;;;;21.13;13.85;;;;;;;7.92;100.00;102345.50;4920355;29;20076;-68
2021/11/24 06:19:54;;;;;;;27.35;14.75;;;;;;;7.70;100.00;102345.06;4919639;29;20036;-68
2021/11/24 06:22:42;;;;;;;24.38;14.85;;;;;;;7.89;100.00;102352.41;4919689;29;20075;-68
2021/11/24 06:25:28;;;;;;;24.50;15.27;;;;;;;7.95;100.00;102349.91;4906672;29;20032;-69
2021/11/24 06:28:14;;;;;;;25.30;14.82;;;;;;;7.67;100.00;102347.63;4921161;29;20036;-68
2021/11/24 06:31:00;;;;;;;26.48;16.77;;;;;;;7.79;100.00;102355.66;4920867;29;20035;-69
2021/11/24 06:33:47;;;;;;;30.35;17.35;;;;;;;7.59;100.00;102357.88;4919884;29;20111;-69
2021/11/24 06:36:33;;;;;;;22.08;15.55;;;;;;;8.00;100.00;102356.97;4919452;29;20071;-69
2021/11/24 06:39:19;;;;;;;23.65;14.57;;;;;;;7.87;100.00;102365.41;4919523;29;20055;-68
2021/11/24 06:42:05;;;;;;;23.75;15.30;;;;;;;7.72;100.00;102369.47;4919978;29;20032;-69
2021/11/24 06:44:51;;;;;;;20.45;14.55;;;;;;;8.14;100.00;102372.91;4919120;29;20372;-68
2021/11/24 06:47:38;;;;;;;24.10;14.43;;;;;;;8.21;100.00;102377.41;4920518;29;20028;-68
2021/11/24 06:50:26;;;;;;;21.45;14.50;;;;;;;7.59;100.00;102383.09;4919045;29;20055;-68
2021/11/24 06:53:12;;;;;;;20.50;14.23;;;;;;;7.89;100.00;102376.78;4920888;29;20048;-69
2021/11/24 06:55:57;;;;;;;26.55;16.23;;;;;;;7.98;100.00;102376.06;4918832;29;20059;-68
2021/11/24 06:58:43;;;;;;;24.33;15.38;;;;;;;8.28;100.00;102379.31;4918785;29;20028;-69
2021/11/24 07:01:29;;;;;;;23.05;16.10;;;;;;;8.11;100.00;102383.28;4921166;29;20032;-69
2021/11/24 07:04:14;;;;;;;21.88;15.25;;;;;;;8.45;100.00;102389.16;4919123;29;20360;-69
2021/11/24 07:07:00;;;;;;;25.15;16.05;;;;;;;8.36;100.00;102388.16;4919263;29;20092;-68
2021/11/24 07:09:46;;;;;;;27.77;17.45;;;;;;;8.79;100.00;102388.00;4918508;29;20036;-69
2021/11/24 07:12:32;;;;;;;33.90;20.10;;;;;;;8.64;100.00;102395.63;4920289;29;20107;-68
2021/11/24 07:15:18;;;;;;;31.00;19.00;;;;;;;8.61;100.00;102391.19;4918523;29;20039;-69
2021/11/24 07:18:04;;;;;;;31.95;21.40;;;;;;;8.12;100.00;102385.91;4918670;29;20119;-68
2021/11/24 07:20:50;;;;;;;32.03;21.02;;;;;;;8.27;100.00;102385.34;4920258;29;20028;-68
2021/11/24 07:23:35;;;;;;;35.15;21.17;;;;;;;8.70;100.00;102398.31;4918694;29;20465;-67
2021/11/24 07:26:21;;;;;;;29.00;19.70;;;;;;;8.63;100.00;102397.34;4906263;29;20115;-68
2021/11/24 07:29:07;;;;;;;28.33;17.80;;;;;;;8.98;100.00;102396.19;4918493;29;20043;-68
2021/11/24 07:31:53;;;;;;;27.23;17.25;;;;;;;9.16;100.00;102408.66;4919157;29;20032;-68
2021/11/24 07:34:39;;;;;;;24.77;17.23;;;;;;;9.22;100.00;102403.53;4919371;29;20071;-69
2021/11/24 07:37:25;;;;;;;25.25;17.40;;;;;;;9.28;100.00;102400.97;4918490;29;20167;-69
2021/11/24 07:40:12;;;;;;;26.02;16.38;;;;;;;9.23;100.00;102410.50;4920358;29;20452;-67
2021/11/24 07:42:58;;;;;;;29.40;17.27;;;;;;;8.76;100.00;102406.28;4905556;29;20028;-68
2021/11/24 07:45:44;;;;;;;26.25;17.83;;;;;;;8.76;100.00;102411.50;4919124;29;20095;-69
2021/11/24 07:48:30;;;;;;;27.02;17.40;;;;;;;8.93;100.00;102417.88;4920287;29;20040;-68
2021/11/24 07:51:19;;;;;;;34.25;18.65;;;;;;;9.20;100.00;102429.66;4919023;29;20040;-68
2021/11/24 07:54:05;;;;;;;27.63;19.13;;;;;;;8.90;100.00;102428.28;4906310;29;20035;-68
2021/11/24 07:56:51;;;;;;;23.00;16.77;;;;;;;8.45;100.00;102419.66;4919514;29;20478;-69
2021/11/24 07:59:37;;;;;;;25.77;17.15;;;;;;;8.81;100.00;102420.28;4919463;29;20063;-68
2021/11/24 08:02:23;;;;;;;30.52;19.77;;;;;;;8.64;100.00;102422.59;4917763;29;20055;-68
2021/11/24 08:05:09;;;;;;;26.55;19.08;;;;;;;8.75;100.00;102422.78;4917974;29;20028;-68
2021/11/24 08:07:55;;;;;;;26.20;17.40;;;;;;;9.15;100.00;102427.81;4904265;29;20020;-69
2021/11/24 08:10:41;;;;;;;24.45;16.23;;;;;;;8.71;100.00;102426.19;4917847;29;20032;-72
2021/11/24 08:13:27;;;;;;;23.23;15.35;;;;;;;9.09;100.00;102425.97;4917682;29;20115;-68
2021/11/24 08:16:12;;;;;;;24.02;15.93;;;;;;;9.62;100.00;102425.00;4906026;29;20111;-69
2021/11/24 08:18:58;;;;;;;30.23;19.23;;;;;;;9.58;100.00;102424.97;4918074;29;20344;-68
2021/11/24 08:21:44;;;;;;;27.15;17.02;;;;;;;9.75;100.00;102418.22;4917007;29;20051;-68
2021/11/24 08:24:30;;;;;;;25.98;15.23;;;;;;;9.69;100.00;102413.78;4917645;29;20036;-68
2021/11/24 08:27:16;;;;;;;21.92;14.82;;;;;;;9.12;100.00;102422.53;4917180;29;20375;-68
2021/11/24 08:30:07;;;;;;;21.13;14.90;;;;;;;8.48;100.00;102417.09;4918635;29;20059;-68
2021/11/24 08:32:53;;;;;;;23.30;14.65;;;;;;;9.00;100.00;102420.59;4917992;29;20451;-69
2021/11/24 08:35:39;;;;;;;23.80;14.75;;;;;;;9.41;100.00;102423.88;4917185;29;20036;-68
2021/11/24 08:38:25;;;;;;;26.73;14.10;;;;;;;9.36;100.00;102420.28;4916819;29;20155;-68
2021/11/24 08:41:12;;;;;;;20.33;13.93;;;;;;;8.56;100.00;102418.97;4918665;29;20055;-69
2021/11/24 08:43:59;;;;;;;21.02;13.52;;;;;;;9.12;100.00;102426.03;4917172;29;20068;-69
2021/11/24 08:46:45;;;;;;;22.05;13.93;;;;;;;9.10;100.00;102419.03;4917509;29;20067;-69
2021/11/24 08:49:30;;;;;;;19.00;13.25;;;;;;;9.37;100.00;102419.44;4903905;29;20028;-68
2021/11/24 08:52:16;;;;;;;18.45;13.55;;;;;;;9.83;100.00;102413.97;4918704;29;20360;-68
2021/11/24 08:55:07;;;;;;;19.58;13.07;;;;;;;10.32;100.00;102416.31;4903826;29;20040;-68
2021/11/24 08:57:53;;;;;;;23.50;14.25;;;;;;;9.46;100.00;102417.84;4916940;29;20039;-68
2021/11/24 09:00:39;;;;;;;17.83;12.63;;;;;;;9.91;100.00;102414.94;4917851;29;20074;-68
2021/11/24 09:03:25;;;;;;;22.10;12.90;;;;;;;9.80;100.00;102409.56;4916623;29;20100;-68
2021/11/24 09:06:10;;;;;;;20.08;12.88;;;;;;;9.47;100.00;102409.13;4918156;29;20432;-69
2021/11/24 09:08:56;;;;;;;23.13;14.55;;;;;;;9.96;100.00;102406.28;4916881;29;20115;-69
2021/11/24 09:11:42;;;;;;;23.30;15.02;;;;;;;9.71;100.00;102404.22;4917052;29;20032;-68
2021/11/24 09:14:28;;;;;;;38.00;20.05;;;;;;;9.55;100.00;102404.00;4904590;29;20035;-68
2021/11/24 09:17:13;;;;;;;23.05;14.15;;;;;;;9.83;100.00;102396.53;4916841;29;20028;-67
2021/11/24 09:19:59;;;;;;;21.25;14.30;;;;;;;10.13;100.00;102396.03;4917885;29;20123;-69
2021/11/24 09:22:46;;;;;;;23.83;15.00;;;;;;;10.52;100.00;102387.69;4916731;29;20038;-69
2021/11/24 09:28:41;;;;;;;19.35;13.90;;;;;;;10.27;100.00;102391.81;4904399;29;20058;-68
2021/11/24 09:31:27;;;;;;;20.17;14.38;;;;;;;10.86;100.00;102382.75;4919908;29;20044;-68
2021/11/24 09:34:13;;;;;;;19.38;13.60;;;;;;;10.97;100.00;102383.69;4920658;29;20351;-69
2021/11/24 09:36:59;;;;;;;22.25;12.63;;;;;;;10.51;100.00;102381.56;4920490;29;20032;-69
2021/11/24 09:39:44;;;;;;;17.85;12.75;;;;;;;10.32;100.00;102384.88;4920606;29;20032;-69
2021/11/24 09:42:33;;;;;;;21.38;12.68;;;;;;;10.24;100.00;102385.69;4921499;29;20095;-68
2021/11/24 09:45:19;;;;;;;16.90;12.48;;;;;;;9.59;100.00;102377.91;4920259;29;20024;-69
2021/11/24 09:48:06;;;;;;;18.33;12.20;;;;;;;9.91;100.00;102368.69;4920506;29;20036;-68
2021/11/24 09:50:54;;;;;;;19.63;12.90;;;;;;;10.19;100.00;102362.03;4906855;29;20036;-69
2021/11/24 09:53:43;;;;;;;16.17;12.15;;;;;;;10.34;100.00;102372.69;4921143;29;20092;-69
2021/11/24 09:56:30;;;;;;;17.23;12.20;;;;;;;10.57;100.00;102358.03;4920231;29;20052;-68
2021/11/24 09:59:16;;;;;;;17.48;12.00;;;;;;;10.31;100.00;102367.41;4921329;29;20052;-69
2021/11/24 10:02:03;;;;;;;19.25;13.38;;;;;;;10.46;100.00;102358.81;4920106;29;20035;-69
2021/11/24 10:04:50;;;;;;;17.73;11.77;;;;;;;10.26;100.00;102356.00;4919902;29;20119;-68
2021/11/24 10:07:37;;;;;;;16.67;12.35;;;;;;;10.01;100.00;102359.22;4920792;29;20028;-68
2021/11/24 10:10:24;;;;;;;22.88;15.07;;;;;;;10.06;100.00;102357.53;4919680;29;20090;-68
2021/11/24 10:13:10;;;;;;;18.42;13.05;;;;;;;9.95;100.00;102353.88;4920969;29;20066;-69
2021/11/24 10:15:57;;;;;;;16.13;12.07;;;;;;;10.10;100.00;102349.72;4920198;29;20032;-69
2021/11/24 10:18:54;;;;;;;16.92;12.55;;;;;;;10.16;100.00;102333.19;4920086;29;20035;-68
2021/11/24 10:21:59;;;;;;;16.63;12.35;;;;;;;10.22;100.00;102330.66;4919594;29;20430;-68
2021/11/24 10:24:45;;;;;;;18.23;12.23;;;;;;;10.52;100.00;102332.66;4919635;29;20036;-68
2021/11/24 10:27:38;;;;;;;18.73;12.60;;;;;;;11.16;100.00;102330.50;4919519;29;20375;-68
2021/11/24 10:30:28;;;;;;;18.70;12.93;;;;;;;10.52;100.00;102328.28;4920250;29;20036;-68
2021/11/24 10:33:18;;;;;;;16.38;12.30;;;;;;;11.16;100.00;102333.13;4919114;29;20024;-68
2021/11/24 10:36:12;;;;;;;21.35;13.48;;;;;;;11.21;100.00;102310.41;4919499;29;20364;-69
2021/11/24 10:38:58;;;;;;;23.65;14.10;;;;;;;11.40;100.00;102314.00;4919989;29;20461;-67
2021/11/24 10:41:44;;;;;;;16.20;12.15;;;;;;;10.90;100.00;102311.13;4920652;29;20546;-69
2021/11/24 10:44:31;;;;;;;19.75;12.88;;;;;;;10.91;100.00;102306.72;4920253;29;20459;-67
2021/11/24 10:47:17;;;;;;;18.08;12.98;;;;;;;11.19;100.00;102304.28;4919923;29;20047;-68
2021/11/24 10:50:05;;;;;;;18.75;13.20;;;;;;;11.69;100.00;102299.28;4919116;29;20028;-69
2021/11/24 10:52:51;;;;;;;17.65;12.63;;;;;;;11.09;100.00;102291.13;4920401;29;20514;-68
2021/11/24 10:55:37;;;;;;;15.43;11.60;;;;;;;10.72;100.00;102290.00;4919457;29;20542;-69
2021/11/24 10:58:26;;;;;;;15.82;11.80;;;;;;;11.36;100.00;102294.75;4920386;29;20510;-68
2021/11/24 11:01:24;;;;;;;16.83;11.65;;;;;;;11.55;100.00;102283.44;4919161;29;20348;-69
2021/11/24 11:04:12;;;;;;;17.23;12.10;;;;;;;11.77;100.00;102282.66;4919627;29;20060;-68
2021/11/24 11:07:09;;;;;;;17.05;12.75;;;;;;;12.69;100.00;102280.97;4919283;29;20479;-69
2021/11/24 11:10:12;;;;;;;16.23;11.35;;;;;;;12.62;100.00;102279.22;4918947;29;20039;-68
2021/11/24 11:13:12;;;;;;;17.52;12.50;;;;;;;11.74;100.00;102277.41;4920738;29;20024;-70
2021/11/24 11:15:58;;;;;;;16.15;12.02;;;;;;;12.26;100.00;102276.59;4919263;29;20032;-68
2021/11/24 11:18:44;;;;;;;20.30;12.40;;;;;;;12.86;100.00;102265.19;4905739;29;20036;-69
2021/11/24 11:21:36;;;;;;;23.60;12.88;;;;;;;12.53;100.00;102280.97;4918613;29;20028;-68
2021/11/24 11:24:22;;;;;;;13.73;10.45;;;;;;;11.91;100.00;102272.19;4918959;29;20064;-69
2021/11/24 11:27:08;;;;;;;15.88;10.85;;;;;;;11.75;100.00;102268.66;4918410;29;20454;-68
2021/11/24 11:29:54;;;;;;;16.50;11.15;;;;;;;11.90;100.00;102271.31;4893131;29;20032;-68
2021/11/24 11:32:40;;;;;;;16.60;11.32;;;;;;;12.29;100.00;102266.09;4920537;29;20024;-69
2021/11/24 11:35:27;;;;;;;14.38;11.43;;;;;;;11.89;100.00;102266.06;4920134;29;20032;-68
2021/11/24 11:38:15;;;;;;;15.80;11.25;;;;;;;11.81;100.00;102265.19;4918910;29;20367;-69
2021/11/24 11:41:02;;;;;;;19.00;11.82;;;;;;;12.14;100.00;102255.56;4918280;29;20028;-68
2021/11/24 11:43:50;;;;;;;14.85;11.20;;;;;;;11.73;100.00;102254.66;4919381;29;20390;-68
2021/11/24 11:46:50;;;;;;;18.42;11.60;;;;;;;11.71;100.00;102256.41;4918650;29;20040;-68
2021/11/24 11:49:38;;;;;;;17.63;11.57;;;;;;;11.39;100.00;102249.25;4918324;29;20036;-68
2021/11/24 11:52:24;;;;;;;19.05;10.77;;;;;;;12.07;100.00;102245.97;4904761;29;20024;-68
2021/11/24 11:55:21;;;;;;;18.23;12.23;;;;;;;11.72;100.00;102239.78;4918150;29;20044;-68
2021/11/24 11:58:22;;;;;;;14.25;11.23;;;;;;;11.24;100.00;102228.19;4918086;29;20028;-68
2021/11/24 12:01:13;;;;;;;16.10;11.50;;;;;;;11.30;100.00;102228.25;4918576;29;20036;-69
2021/11/24 12:04:09;;;;;;;17.80;11.32;;;;;;;11.70;100.00;102233.63;4917554;29;20452;-68
2021/11/24 12:06:58;;;;;;;15.02;10.73;;;;;;;11.92;100.00;102231.91;4918318;29;20472;-69
2021/11/24 12:09:46;;;;;;;12.88;9.57;;;;;;;11.97;95.99;102232.81;4917680;29;20028;-69
2021/11/24 12:12:35;;;;;;;12.80;9.18;;;;;;;11.94;93.69;102222.31;4917533;29;20035;-69
2021/11/24 12:15:28;;;;;;;14.05;9.27;;;;;;;12.25;88.36;102221.41;4917224;29;20028;-69
2021/11/24 12:18:14;;;;;;;12.50;9.07;;;;;;;12.20;88.66;102224.06;4918686;29;20120;-69
2021/11/24 12:21:03;;;;;;;13.57;9.82;;;;;;;11.63;95.67;102223.13;4917876;29;20028;-69
2021/11/24 12:24:04;;;;;;;13.18;10.02;;;;;;;12.23;93.78;102216.19;4918415;29;20115;-69
2021/11/24 12:26:56;;;;;;;13.98;9.98;;;;;;;11.80;96.71;102222.28;5132772;27;20372;-69
2021/11/24 12:29:49;;;;;;;13.05;10.02;;;;;;;12.00;94.99;102219.66;5131858;28;20367;-68
2021/11/24 12:32:35;;;;;;;14.90;10.05;;;;;;;11.95;95.80;102216.16;5130186;28;20023;-69
2021/11/24 12:35:21;;;;;;;13.32;9.65;;;;;;;11.71;98.39;102211.78;5130830;28;20023;-69
2021/11/24 12:38:07;;;;;;;15.20;10.10;;;;;;;12.00;98.53;102214.41;5116100;28;20027;-69
2021/11/24 12:40:57;;;;;;;13.93;10.10;;;;;;;11.27;100.00;102210.75;5130588;28;20348;-68
2021/11/24 12:43:46;;;;;;;14.88;10.55;;;;;;;12.12;98.24;102204.78;5130158;28;20112;-69
2021/11/24 12:46:38;;;;;;;13.48;9.75;;;;;;;11.45;99.77;102207.31;5130065;28;20049;-69